Time;durP1;ratioP1;P1;durP2;ratioP2;P2;SDS_P1;SDS_P2;PMS_P1;PMS_P2;Temp;Humidity;BMP_temperature;BMP_pressure;BME280_temperature;BME280_humidity;BME280_pressure;Samples;Min_cycle;Max_cycle;Signal;HPM_P1;HPM_P2
2024/04/03 00:00:00;;;;;;;2.90;2.70;;;13.30;99.90;;;;;;5088845;28;20266;-75
2024/04/03 00:02:26;;;;;;;0.30;0.20;;;13.30;99.90;;;;;;5088437;28;20639;-75
2024/04/03 00:04:52;;;;;;;0.30;0.20;;;13.30;99.90;;;;;;5089256;28;20425;-75
2024/04/03 00:07:17;;;;;;;0.30;0.20;;;13.20;99.90;;;;;;5087000;28;20177;-76
2024/04/03 00:09:43;;;;;;;0.30;0.20;;;13.20;99.90;;;;;;5088676;28;20417;-75
2024/04/03 00:12:08;;;;;;;0.30;0.20;;;13.20;99.90;;;;;;5088193;28;20589;-77
2024/04/03 00:14:34;;;;;;;0.30;0.30;;;13.20;99.90;;;;;;5087587;28;20666;-77
2024/04/03 00:17:00;;;;;;;0.30;0.20;;;13.20;99.90;;;;;;5088282;28;20204;-76
2024/04/03 00:19:25;;;;;;;0.30;0.20;;;13.10;99.90;;;;;;5088387;28;20208;-77
2024/04/03 00:21:51;;;;;;;0.30;0.20;;;13.00;99.90;;;;;;5087080;28;20173;-74
2024/04/03 00:24:17;;;;;;;0.30;0.20;;;13.00;99.90;;;;;;5086599;28;20211;-77
2024/04/03 00:26:42;;;;;;;0.30;0.20;;;12.90;99.90;;;;;;5086959;28;20172;-76
2024/04/03 00:29:11;;;;;;;0.30;0.20;;;12.90;99.90;;;;;;5087396;28;20243;-75
2024/04/03 00:31:37;;;;;;;0.40;0.40;;;12.80;99.90;;;;;;5086988;28;20176;-77
2024/04/03 00:34:03;;;;;;;0.30;0.20;;;12.80;99.90;;;;;;5087996;28;20964;-77
2024/04/03 00:36:29;;;;;;;0.30;0.20;;;12.80;99.90;;;;;;5087922;28;20187;-75
2024/04/03 00:38:55;;;;;;;0.30;0.20;;;12.70;99.90;;;;;;5087377;28;20532;-75
2024/04/03 00:41:21;;;;;;;0.30;0.20;;;12.60;99.90;;;;;;5087910;28;21146;-77
2024/04/03 00:43:48;;;;;;;0.83;0.83;;;12.50;99.90;;;;;;5086221;28;20196;-77
2024/04/03 00:46:15;;;;;;;0.30;0.20;;;12.50;99.90;;;;;;5087772;28;20417;-74
2024/04/03 00:48:44;;;;;;;0.30;0.20;;;12.50;99.90;;;;;;5086041;28;20430;-76
2024/04/03 00:51:10;;;;;;;0.30;0.20;;;12.40;99.90;;;;;;5088071;28;20448;-75
2024/04/03 00:53:37;;;;;;;0.30;0.20;;;12.30;99.90;;;;;;5086144;28;20499;-76
2024/04/03 00:56:07;;;;;;;0.30;0.20;;;12.20;99.90;;;;;;5086465;28;21027;-75
2024/04/03 00:58:34;;;;;;;0.30;0.20;;;12.20;99.90;;;;;;5086788;28;20548;-74
2024/04/03 01:00:59;;;;;;;0.30;0.20;;;12.20;99.90;;;;;;5087077;28;20465;-77
2024/04/03 01:03:25;;;;;;;0.30;0.30;;;12.20;99.90;;;;;;5087296;28;20195;-78
2024/04/03 01:06:04;;;;;;;0.30;0.20;;;12.10;99.90;;;;;;5087729;28;20177;-74
2024/04/03 01:08:30;;;;;;;0.30;0.20;;;12.10;99.90;;;;;;5087350;28;20254;-77
2024/04/03 01:10:57;;;;;;;0.30;0.20;;;12.10;99.90;;;;;;5087985;28;20416;-75
2024/04/03 01:13:24;;;;;;;0.30;0.20;;;12.00;99.90;;;;;;5087619;28;21112;-74
2024/04/03 01:16:01;;;;;;;0.30;0.20;;;11.90;99.90;;;;;;5086091;28;20584;-77
2024/04/03 01:18:27;;;;;;;0.30;0.20;;;11.80;99.90;;;;;;5086602;28;20275;-74
2024/04/03 01:20:53;;;;;;;0.30;0.20;;;11.80;99.90;;;;;;5087208;28;20208;-75
2024/04/03 01:23:20;;;;;;;0.30;0.20;;;11.80;99.90;;;;;;5085430;28;20200;-75
2024/04/03 01:25:45;;;;;;;0.30;0.20;;;11.80;99.90;;;;;;5086052;28;20172;-77
2024/04/03 01:28:11;;;;;;;0.30;0.20;;;11.80;99.90;;;;;;5086539;28;20554;-74
2024/04/03 01:30:37;;;;;;;0.30;0.20;;;11.80;99.90;;;;;;5087406;28;20176;-75
2024/04/03 01:33:04;;;;;;;0.30;0.20;;;11.90;99.90;;;;;;5086810;28;20196;-77
2024/04/03 01:35:31;;;;;;;0.30;0.20;;;11.90;99.90;;;;;;5085535;28;20219;-77
2024/04/03 01:37:57;;;;;;;0.30;0.20;;;11.90;99.90;;;;;;5086610;28;20283;-76
2024/04/03 01:40:23;;;;;;;0.30;0.20;;;11.80;99.90;;;;;;5084629;28;20691;-77
2024/04/03 01:42:49;;;;;;;0.30;0.20;;;11.80;99.90;;;;;;5086645;28;20189;-78
2024/04/03 01:45:15;;;;;;;0.30;0.20;;;11.80;99.90;;;;;;5087226;28;20669;-75
2024/04/03 01:47:44;;;;;;;0.30;0.20;;;11.70;99.90;;;;;;5086284;28;20435;-78
2024/04/03 01:50:18;;;;;;;0.30;0.20;;;11.60;99.90;;;;;;5086961;28;20185;-75
2024/04/03 01:52:43;;;;;;;0.30;0.20;;;11.60;99.90;;;;;;5086425;28;20188;-75
2024/04/03 01:55:09;;;;;;;0.30;0.20;;;11.60;99.90;;;;;;5084985;28;20279;-78
2024/04/03 01:57:35;;;;;;;0.30;0.20;;;11.60;99.90;;;;;;5085709;28;20308;-75
2024/04/03 02:00:00;;;;;;;0.30;0.20;;;11.60;99.90;;;;;;5085304;28;20216;-75
2024/04/03 02:02:26;;;;;;;0.30;0.20;;;11.60;99.90;;;;;;5083662;28;20203;-78
2024/04/03 02:04:52;;;;;;;0.30;0.20;;;11.50;99.90;;;;;;5086668;28;20180;-75
2024/04/03 02:07:17;;;;;;;0.30;0.20;;;11.50;99.90;;;;;;5086383;28;20299;-75
2024/04/03 02:09:43;;;;;;;0.30;0.20;;;11.50;99.90;;;;;;5084828;28;20185;-77
2024/04/03 02:12:09;;;;;;;2.10;1.07;;;11.40;99.90;;;;;;5085872;28;20393;-78
2024/04/03 02:14:35;;;;;;;0.30;0.20;;;11.40;99.90;;;;;;5086540;28;20223;-75
2024/04/03 02:17:00;;;;;;;0.30;0.20;;;11.40;99.90;;;;;;5085656;28;20180;-76
2024/04/03 02:19:26;;;;;;;0.30;0.20;;;11.40;99.90;;;;;;5084637;28;20374;-78
2024/04/03 02:21:52;;;;;;;0.30;0.20;;;11.30;99.90;;;;;;5084558;28;20428;-76
2024/04/03 02:24:18;;;;;;;0.30;0.20;;;11.30;99.90;;;;;;5085835;28;20188;-77
2024/04/03 02:26:44;;;;;;;0.30;0.20;;;11.30;99.90;;;;;;5084740;28;20444;-74
2024/04/03 02:29:12;;;;;;;0.30;0.20;;;11.30;99.90;;;;;;5084295;28;20692;-74
2024/04/03 02:31:38;;;;;;;0.30;0.20;;;11.30;99.90;;;;;;5084758;28;20176;-74
2024/04/03 02:34:04;;;;;;;0.30;0.20;;;11.30;99.90;;;;;;5086020;28;20196;-77
2024/04/03 02:36:29;;;;;;;0.30;0.20;;;11.30;99.90;;;;;;5084330;28;20413;-74
2024/04/03 02:38:55;;;;;;;0.30;0.20;;;11.30;99.90;;;;;;5084120;28;20295;-77
2024/04/03 02:41:20;;;;;;;0.30;0.20;;;11.30;99.90;;;;;;5084527;28;20356;-77
2024/04/03 02:43:46;;;;;;;0.30;0.20;;;11.30;99.90;;;;;;5085274;28;20605;-74
2024/04/03 02:46:12;;;;;;;0.30;0.20;;;11.30;99.90;;;;;;5085764;28;20176;-75
2024/04/03 02:48:37;;;;;;;0.30;0.20;;;11.30;99.90;;;;;;5083937;28;20196;-74
2024/04/03 02:51:05;;;;;;;0.30;0.20;;;11.30;99.90;;;;;;5084345;28;20179;-78
2024/04/03 02:53:32;;;;;;;0.60;0.60;;;11.20;99.90;;;;;;5085084;28;20196;-74
2024/04/03 02:56:05;;;;;;;0.30;0.20;;;11.20;99.90;;;;;;5084175;28;20184;-78
2024/04/03 02:58:32;;;;;;;0.30;0.20;;;11.20;99.90;;;;;;5085142;28;20331;-75
2024/04/03 03:01:03;;;;;;;0.35;0.35;;;11.10;99.90;;;;;;5084142;28;20212;-78
2024/04/03 03:03:31;;;;;;;0.30;0.20;;;11.00;99.90;;;;;;5083219;28;20188;-75
2024/04/03 03:06:02;;;;;;;0.63;0.63;;;11.00;99.90;;;;;;5084952;28;20185;-78
2024/04/03 03:08:30;;;;;;;0.30;0.20;;;10.90;99.90;;;;;;5084868;28;20210;-76
2024/04/03 03:10:57;;;;;;;0.30;0.20;;;10.90;99.90;;;;;;5085678;28;20549;-75
2024/04/03 03:13:26;;;;;;;0.30;0.20;;;10.80;99.90;;;;;;5085038;28;20681;-76
2024/04/03 03:15:56;;;;;;;0.30;0.20;;;10.80;99.90;;;;;;5084231;28;20199;-75
2024/04/03 03:18:23;;;;;;;0.30;0.20;;;10.70;99.90;;;;;;5083707;28;20184;-77
2024/04/03 03:20:49;;;;;;;0.30;0.20;;;10.60;99.90;;;;;;5083797;28;20269;-75
2024/04/03 03:23:16;;;;;;;0.30;0.20;;;10.60;99.90;;;;;;5085123;28;20196;-75
2024/04/03 03:25:48;;;;;;;0.30;0.20;;;10.50;99.90;;;;;;5084231;28;20678;-75
2024/04/03 03:28:15;;;;;;;0.30;0.20;;;10.50;99.90;;;;;;5084546;28;20220;-75
2024/04/03 03:30:45;;;;;;;0.30;0.20;;;10.40;99.90;;;;;;5085539;28;20184;-77
2024/04/03 03:33:11;;;;;;;0.30;0.20;;;10.40;99.90;;;;;;5083830;28;20200;-75
2024/04/03 03:35:37;;;;;;;0.30;0.20;;;10.50;99.90;;;;;;5085375;28;20180;-77
2024/04/03 03:38:02;;;;;;;0.30;0.20;;;10.50;99.90;;;;;;5083459;28;20203;-77
2024/04/03 03:40:28;;;;;;;0.30;0.20;;;10.60;99.90;;;;;;5085344;28;20208;-76
2024/04/03 03:42:53;;;;;;;0.30;0.20;;;10.60;99.90;;;;;;5084688;28;20223;-76
2024/04/03 03:45:20;;;;;;;0.30;0.20;;;10.70;99.90;;;;;;5085371;28;20268;-78
2024/04/03 03:47:47;;;;;;;0.30;0.20;;;10.80;99.90;;;;;;5084526;28;20676;-76
2024/04/03 03:52:57;;;;;;;0.30;0.20;;;11.00;99.90;;;;;;5084616;28;20200;-76
2024/04/03 03:55:27;;;;;;;0.30;0.20;;;11.10;99.90;;;;;;5083595;28;20177;-76
2024/04/03 03:57:52;;;;;;;0.30;0.20;;;11.10;99.90;;;;;;5084399;28;20879;-78
2024/04/03 04:00:19;;;;;;;0.30;0.30;;;11.20;99.90;;;;;;5083403;28;20299;-79
2024/04/03 04:02:44;;;;;;;0.30;0.20;;;11.20;99.90;;;;;;5083562;28;20330;-79
2024/04/03 04:05:10;;;;;;;0.30;0.20;;;11.20;99.90;;;;;;5088790;28;20263;-76
2024/04/03 04:07:36;;;;;;;0.30;0.20;;;11.30;99.90;;;;;;5086555;28;20197;-79
2024/04/03 04:10:01;;;;;;;0.30;0.20;;;11.30;99.90;;;;;;5088570;28;20810;-76
2024/04/03 04:12:27;;;;;;;0.30;0.20;;;11.30;99.90;;;;;;5086526;28;20196;-75
2024/04/03 04:14:53;;;;;;;0.83;0.83;;;11.30;99.90;;;;;;5088386;28;20618;-75
2024/04/03 04:17:22;;;;;;;0.30;0.20;;;11.30;99.90;;;;;;5088061;28;20175;-75
2024/04/03 04:19:48;;;;;;;0.52;0.52;;;11.40;99.90;;;;;;5088368;28;20216;-75
2024/04/03 04:22:13;;;;;;;0.77;0.77;;;11.40;99.90;;;;;;5086312;28;20177;-76
2024/04/03 04:24:39;;;;;;;1.33;1.33;;;11.40;99.90;;;;;;5088207;28;20508;-78
2024/04/03 04:27:07;;;;;;;0.40;0.40;;;11.40;99.90;;;;;;5085817;28;20237;-76
2024/04/03 04:29:35;;;;;;;1.75;1.65;;;11.40;99.90;;;;;;5086453;28;20186;-79
2024/04/03 04:32:03;;;;;;;1.17;1.05;;;11.50;99.90;;;;;;5087853;28;20222;-76
2024/04/03 04:34:28;;;;;;;0.30;0.30;;;11.50;99.90;;;;;;5087263;28;20185;-76
2024/04/03 04:36:54;;;;;;;0.30;0.20;;;11.50;99.90;;;;;;5085153;28;20172;-79
2024/04/03 04:39:20;;;;;;;0.83;0.83;;;11.50;99.90;;;;;;5087760;28;20218;-78
2024/04/03 04:41:53;;;;;;;0.40;0.40;;;11.40;99.90;;;;;;5087579;28;20161;-79
2024/04/03 04:44:19;;;;;;;0.30;0.30;;;11.40;99.90;;;;;;5087257;28;20196;-77
2024/04/03 04:46:52;;;;;;;0.30;0.20;;;11.40;99.90;;;;;;5085249;28;20180;-79
2024/04/03 04:49:19;;;;;;;0.30;0.22;;;11.40;99.90;;;;;;5086017;28;20201;-76
2024/04/03 04:51:45;;;;;;;0.30;0.20;;;11.40;99.90;;;;;;5084600;28;20204;-79
2024/04/03 04:54:12;;;;;;;0.30;0.20;;;11.30;99.90;;;;;;5067793;28;20665;-76
2024/04/03 04:56:38;;;;;;;0.30;0.20;;;11.30;99.90;;;;;;5086077;28;20225;-75
2024/04/03 04:59:04;;;;;;;0.30;0.20;;;11.30;99.90;;;;;;5080587;28;20240;-79
2024/04/03 05:01:33;;;;;;;0.30;0.20;;;11.30;99.90;;;;;;5066220;28;20572;-78
2024/04/03 05:04:02;;;;;;;0.30;0.20;;;11.20;99.90;;;;;;5085204;28;20211;-75
2024/04/03 05:06:28;;;;;;;0.30;0.20;;;11.10;99.90;;;;;;5086602;28;20284;-78
2024/04/03 05:08:55;;;;;;;0.30;0.20;;;11.00;99.90;;;;;;5086407;28;20204;-75
2024/04/03 05:11:21;;;;;;;0.30;0.20;;;10.90;99.90;;;;;;5086684;28;20645;-76
2024/04/03 05:13:47;;;;;;;0.40;0.40;;;10.90;99.90;;;;;;5086042;28;20216;-74
2024/04/03 05:16:13;;;;;;;0.30;0.20;;;10.80;99.90;;;;;;5086517;28;20377;-74
2024/04/03 05:18:42;;;;;;;0.30;0.30;;;10.80;99.90;;;;;;5084337;28;20207;-78
2024/04/03 05:21:07;;;;;;;2.47;2.28;;;10.80;99.90;;;;;;5086781;28;20235;-77
2024/04/03 05:23:33;;;;;;;0.30;0.20;;;10.80;99.90;;;;;;5085840;28;20196;-77
2024/04/03 05:26:05;;;;;;;0.30;0.20;;;10.80;99.90;;;;;;5085337;28;20265;-77
2024/04/03 05:28:32;;;;;;;0.30;0.20;;;11.00;99.90;;;;;;5085895;28;20815;-76
2024/04/03 05:31:15;;;;;;;0.30;0.20;;;11.00;99.90;;;;;;5085156;28;20358;-74
2024/04/03 05:33:41;;;;;;;0.47;0.47;;;11.10;99.90;;;;;;5084984;28;20204;-77
2024/04/03 05:36:08;;;;;;;0.55;0.55;;;11.00;99.90;;;;;;5086834;28;20321;-78
2024/04/03 05:38:34;;;;;;;0.30;0.20;;;10.90;99.90;;;;;;5088513;28;20703;-75
2024/04/03 05:41:00;;;;;;;0.30;0.20;;;10.80;99.90;;;;;;5086214;28;20204;-74
2024/04/03 05:43:26;;;;;;;0.45;0.45;;;10.80;99.90;;;;;;5084882;28;20526;-78
2024/04/03 05:45:54;;;;;;;0.30;0.20;;;10.90;99.90;;;;;;5086455;28;20218;-74
2024/04/03 05:48:25;;;;;;;0.30;0.20;;;10.90;99.90;;;;;;5086050;28;20575;-76
2024/04/03 05:51:04;;;;;;;0.30;0.20;;;10.90;99.90;;;;;;5085849;28;20240;-74
2024/04/03 05:53:31;;;;;;;0.30;0.20;;;11.00;99.90;;;;;;5085513;28;20192;-74
2024/04/03 05:55:58;;;;;;;0.30;0.20;;;11.00;99.90;;;;;;5086172;28;20181;-77
2024/04/03 05:58:25;;;;;;;0.30;0.20;;;11.20;99.90;;;;;;5084198;28;20309;-77
2024/04/03 06:00:52;;;;;;;0.30;0.20;;;11.30;99.90;;;;;;5086056;28;20252;-75
2024/04/03 06:03:18;;;;;;;0.30;0.20;;;11.40;99.90;;;;;;5084096;28;20204;-77
2024/04/03 06:05:45;;;;;;;0.30;0.20;;;11.40;99.90;;;;;;5085113;28;20260;-74
2024/04/03 06:08:10;;;;;;;1.13;0.90;;;11.40;99.90;;;;;;5082648;28;20703;-75
2024/04/03 06:10:38;;;;;;;0.30;0.20;;;11.50;99.90;;;;;;5083972;28;20653;-77
2024/04/03 06:13:05;;;;;;;0.30;0.20;;;11.60;99.90;;;;;;5084856;28;20192;-78
2024/04/03 06:15:32;;;;;;;0.30;0.30;;;11.70;99.90;;;;;;5086014;28;20198;-77
2024/04/03 06:17:57;;;;;;;4.88;2.97;;;11.80;99.90;;;;;;5083355;28;20287;-77
2024/04/03 06:20:23;;;;;;;1.00;1.00;;;12.00;99.90;;;;;;5085714;28;20327;-77
2024/04/03 06:22:49;;;;;;;1.07;1.07;;;12.00;99.90;;;;;;5085342;28;20211;-77
2024/04/03 06:25:16;;;;;;;0.30;0.20;;;12.10;99.90;;;;;;5085239;28;20172;-74
2024/04/03 06:27:42;;;;;;;0.30;0.20;;;12.20;99.90;;;;;;5083829;28;20455;-77
2024/04/03 06:30:08;;;;;;;0.30;0.20;;;12.30;99.90;;;;;;5084125;28;20789;-74
2024/04/03 06:32:34;;;;;;;2.30;0.77;;;12.40;99.90;;;;;;5081633;28;20452;-75
2024/04/03 06:35:00;;;;;;;0.30;0.27;;;12.60;99.90;;;;;;5073518;28;20420;-74
2024/04/03 06:37:25;;;;;;;0.63;0.63;;;12.70;99.90;;;;;;5079854;28;20665;-77
2024/04/03 06:39:51;;;;;;;0.30;0.20;;;12.80;99.90;;;;;;5082211;28;20725;-74
2024/04/03 06:42:16;;;;;;;0.30;0.20;;;12.90;99.90;;;;;;5082064;28;20183;-77
2024/04/03 06:44:43;;;;;;;0.30;0.30;;;13.10;99.90;;;;;;5084853;28;20321;-77
2024/04/03 06:47:08;;;;;;;0.30;0.20;;;13.20;99.90;;;;;;5084407;28;20164;-74
2024/04/03 06:49:34;;;;;;;0.60;0.50;;;13.30;99.90;;;;;;5080174;28;20435;-75
2024/04/03 06:52:00;;;;;;;0.30;0.20;;;13.40;99.90;;;;;;5083064;28;20188;-76
2024/04/03 06:54:26;;;;;;;0.30;0.20;;;13.50;99.90;;;;;;5072149;28;20423;-79
2024/04/03 06:56:52;;;;;;;0.30;0.20;;;13.70;99.90;;;;;;5081954;28;20485;-76
2024/04/03 06:59:18;;;;;;;0.30;0.20;;;13.80;99.90;;;;;;5081961;28;20715;-79
2024/04/03 07:01:43;;;;;;;0.40;0.30;;;13.90;99.90;;;;;;5083858;28;20645;-76
2024/04/03 07:04:09;;;;;;;0.30;0.20;;;14.00;99.90;;;;;;5082948;28;20200;-79
2024/04/03 07:06:36;;;;;;;0.40;0.40;;;14.10;99.90;;;;;;5079971;28;20670;-75
2024/04/03 07:09:04;;;;;;;0.30;0.30;;;14.20;99.90;;;;;;5073177;28;20215;-78
2024/04/03 07:11:30;;;;;;;0.30;0.20;;;14.40;99.90;;;;;;5077945;28;20981;-78
2024/04/03 07:13:56;;;;;;;0.30;0.30;;;14.60;99.90;;;;;;5074137;28;20453;-77
2024/04/03 07:16:24;;;;;;;0.60;0.60;;;14.90;99.90;;;;;;5075445;28;20470;-78
2024/04/03 07:18:56;;;;;;;0.30;0.20;;;15.00;99.90;;;;;;5069988;28;20243;-76
2024/04/03 07:21:22;;;;;;;0.30;0.30;;;15.20;99.90;;;;;;5072833;28;20629;-79
2024/04/03 07:23:47;;;;;;;0.30;0.20;;;15.40;99.90;;;;;;5073818;28;20443;-76
2024/04/03 07:26:13;;;;;;;0.30;0.20;;;15.40;99.90;;;;;;5077062;28;20180;-78
2024/04/03 07:28:40;;;;;;;0.50;0.40;;;15.50;99.90;;;;;;5075077;28;20201;-76
2024/04/03 07:31:06;;;;;;;0.50;0.40;;;15.60;99.90;;;;;;5080163;28;20181;-79
2024/04/03 07:33:32;;;;;;;0.40;0.40;;;15.70;99.90;;;;;;5077075;28;20496;-76
2024/04/03 07:36:00;;;;;;;0.50;0.40;;;15.80;99.90;;;;;;5074371;28;20703;-76
2024/04/03 07:38:26;;;;;;;0.30;0.20;;;15.90;99.90;;;;;;5076539;28;20434;-76
2024/04/03 07:40:52;;;;;;;0.30;0.20;;;16.10;99.90;;;;;;5082149;28;20533;-78
2024/04/03 07:43:18;;;;;;;0.30;0.20;;;16.20;99.90;;;;;;5083473;28;20472;-76
2024/04/03 07:45:44;;;;;;;0.30;0.20;;;16.30;99.90;;;;;;5082123;28;20869;-79
2024/04/03 07:48:09;;;;;;;0.30;0.20;;;16.50;99.90;;;;;;5082837;28;20193;-76
2024/04/03 07:50:35;;;;;;;0.40;0.40;;;16.60;99.90;;;;;;5083865;28;20370;-79
2024/04/03 07:53:01;;;;;;;0.30;0.20;;;16.70;99.90;;;;;;5083717;28;20215;-76
2024/04/03 07:55:26;;;;;;;0.30;0.20;;;16.80;99.90;;;;;;5085463;28;20192;-76
2024/04/03 07:57:52;;;;;;;0.30;0.20;;;16.90;99.90;;;;;;5083189;28;20614;-76
2024/04/03 08:00:18;;;;;;;0.30;0.20;;;17.00;99.90;;;;;;5084263;28;20221;-79
2024/04/03 08:02:44;;;;;;;0.30;0.20;;;17.20;99.90;;;;;;5085113;28;20392;-77
2024/04/03 08:05:11;;;;;;;0.30;0.20;;;17.40;99.90;;;;;;5083383;28;20435;-78
2024/04/03 08:07:38;;;;;;;0.30;0.20;;;17.50;99.90;;;;;;5084844;28;20496;-78
2024/04/03 08:10:08;;;;;;;0.60;0.50;;;17.70;99.90;;;;;;5077161;28;20460;-77
2024/04/03 08:12:35;;;;;;;0.30;0.20;;;17.90;99.90;;;;;;5087252;28;20901;-78
2024/04/03 08:15:01;;;;;;;0.30;0.20;;;18.00;99.90;;;;;;5085927;28;20610;-75
2024/04/03 08:17:29;;;;;;;5.30;1.20;;;18.10;99.90;;;;;;5084212;28;20444;-75
2024/04/03 08:19:56;;;;;;;0.30;0.20;;;18.20;99.90;;;;;;5084367;28;20620;-78
2024/04/03 08:22:22;;;;;;;0.30;0.20;;;18.30;99.90;;;;;;5084167;28;20474;-78
2024/04/03 08:24:50;;;;;;;0.30;0.20;;;18.30;99.90;;;;;;5082474;28;21027;-75
2024/04/03 08:27:17;;;;;;;0.30;0.20;;;18.40;99.90;;;;;;5082391;28;20757;-76
2024/04/03 08:29:43;;;;;;;0.30;0.20;;;18.60;99.90;;;;;;5078439;28;20506;-78
2024/04/03 08:32:10;;;;;;;0.40;0.20;;;18.70;99.90;;;;;;5074650;28;20606;-75
2024/04/03 08:34:37;;;;;;;0.40;0.30;;;19.00;99.90;;;;;;5076689;28;20423;-78
2024/04/03 08:37:06;;;;;;;0.30;0.20;;;19.10;99.90;;;;;;5080461;28;20516;-76
2024/04/03 08:39:33;;;;;;;0.40;0.30;;;19.50;99.90;;;;;;5082877;28;20525;-75
2024/04/03 08:42:00;;;;;;;0.40;0.20;;;20.40;99.90;;;;;;5083603;28;20412;-78
2024/04/03 08:44:30;;;;;;;0.40;0.20;;;21.40;99.90;;;;;;5084320;28;20537;-76
2024/04/03 08:46:57;;;;;;;0.40;0.30;;;22.60;97.20;;;;;;5081196;28;20406;-76
2024/04/03 08:49:31;;;;;;;0.40;0.20;;;23.60;95.20;;;;;;5084450;28;20807;-78
2024/04/03 08:52:05;;;;;;;0.40;0.30;;;24.30;92.70;;;;;;5083105;28;20423;-79
2024/04/03 08:54:32;;;;;;;0.30;0.20;;;24.80;90.20;;;;;;5082503;28;20444;-79
2024/04/03 08:57:01;;;;;;;0.30;0.20;;;24.80;88.80;;;;;;5083785;28;20525;-77
2024/04/03 08:59:31;;;;;;;0.30;0.20;;;24.90;89.10;;;;;;5081608;28;20487;-79
2024/04/03 09:01:57;;;;;;;0.50;0.50;;;25.00;87.50;;;;;;5080368;28;20428;-79
2024/04/03 09:04:23;;;;;;;0.33;0.33;;;25.10;86.30;;;;;;5079633;28;20460;-78
2024/04/03 09:06:48;;;;;;;0.40;0.30;;;25.10;85.00;;;;;;5081159;28;20195;-77
2024/04/03 09:09:27;;;;;;;0.70;0.70;;;25.10;85.20;;;;;;5084075;28;20208;-79
2024/04/03 09:12:11;;;;;;;0.30;0.20;;;25.00;83.70;;;;;;5083505;28;20550;-76
2024/04/03 09:14:38;;;;;;;0.40;0.30;;;25.00;83.80;;;;;;5082635;28;20432;-77
2024/04/03 09:17:05;;;;;;;0.30;0.20;;;25.00;83.30;;;;;;5083356;28;20692;-76
2024/04/03 09:19:33;;;;;;;0.30;0.30;;;25.20;83.20;;;;;;5080669;28;20557;-76
2024/04/03 09:22:00;;;;;;;0.30;0.20;;;25.30;82.00;;;;;;5082621;28;20510;-76
2024/04/03 09:24:26;;;;;;;0.30;0.20;;;25.30;80.50;;;;;;5080790;28;20463;-78
2024/04/03 09:26:56;;;;;;;0.30;0.20;;;25.20;81.30;;;;;;5081801;28;20778;-79
2024/04/03 09:29:23;;;;;;;0.30;0.20;;;25.20;81.10;;;;;;5079445;28;20460;-79
2024/04/03 09:31:49;;;;;;;0.30;0.20;;;25.20;80.10;;;;;;5081372;28;20940;-76
2024/04/03 09:34:15;;;;;;;0.30;0.20;;;25.00;79.80;;;;;;5082597;28;20593;-76
2024/04/03 09:36:41;;;;;;;0.30;0.20;;;24.60;80.60;;;;;;5082208;28;20686;-78
2024/04/03 09:39:11;;;;;;;0.30;0.20;;;24.20;81.40;;;;;;5080401;28;20208;-78
2024/04/03 09:41:39;;;;;;;0.30;0.20;;;24.10;81.90;;;;;;5081670;28;20997;-76
2024/04/03 09:44:08;;;;;;;0.30;0.20;;;24.00;81.10;;;;;;5082100;28;20464;-78
2024/04/03 09:46:36;;;;;;;0.30;0.20;;;23.60;82.50;;;;;;5081013;28;20420;-76
2024/04/03 09:49:03;;;;;;;0.30;0.20;;;23.20;83.10;;;;;;5082675;28;20452;-78
2024/04/03 09:51:29;;;;;;;0.30;0.20;;;23.00;83.00;;;;;;5082618;28;20420;-76
2024/04/03 09:53:55;;;;;;;0.30;0.20;;;23.00;83.90;;;;;;5083197;28;20450;-79
2024/04/03 09:56:21;;;;;;;0.30;0.20;;;22.90;82.90;;;;;;5081978;28;21203;-79
2024/04/03 09:58:50;;;;;;;0.40;0.30;;;22.60;83.00;;;;;;5080439;28;20487;-76
2024/04/03 10:01:17;;;;;;;0.30;0.20;;;22.40;84.50;;;;;;5080401;28;20927;-76
2024/04/03 10:03:43;;;;;;;0.30;0.20;;;22.30;84.50;;;;;;5080454;28;20454;-76
2024/04/03 10:06:16;;;;;;;0.30;0.20;;;22.20;84.70;;;;;;5080569;28;20452;-78
2024/04/03 10:08:44;;;;;;;0.30;0.20;;;22.00;84.10;;;;;;5076935;28;20451;-76
2024/04/03 10:11:16;;;;;;;0.83;0.83;;;21.90;84.80;;;;;;5081157;28;20434;-76
2024/04/03 10:13:47;;;;;;;0.30;0.20;;;21.60;85.50;;;;;;5080689;28;20469;-78
2024/04/03 10:16:14;;;;;;;0.30;0.20;;;21.60;87.90;;;;;;5080009;28;20428;-78
2024/04/03 10:18:50;;;;;;;0.30;0.20;;;21.70;86.60;;;;;;5081435;28;20990;-76
2024/04/03 10:21:16;;;;;;;0.30;0.20;;;21.70;86.80;;;;;;5081095;28;20831;-75
2024/04/03 10:23:49;;;;;;;0.30;0.20;;;21.60;86.60;;;;;;5081865;28;20437;-76
2024/04/03 10:26:16;;;;;;;0.53;0.50;;;21.50;86.60;;;;;;5082516;28;20224;-78
2024/04/03 10:28:42;;;;;;;0.30;0.20;;;21.50;86.30;;;;;;5079979;28;20519;-78
2024/04/03 10:31:15;;;;;;;0.30;0.20;;;21.50;86.20;;;;;;5083029;28;20516;-77
2024/04/03 10:33:42;;;;;;;0.30;0.20;;;21.40;87.10;;;;;;5083434;28;20448;-75
2024/04/03 10:36:08;;;;;;;0.30;0.30;;;21.30;86.80;;;;;;5080130;28;20450;-77
2024/04/03 10:38:35;;;;;;;0.30;0.20;;;21.30;86.70;;;;;;5077983;28;20460;-75
2024/04/03 10:41:01;;;;;;;0.50;0.50;;;21.20;87.40;;;;;;5078161;28;20467;-76
2024/04/03 10:43:27;;;;;;;0.30;0.20;;;21.20;87.70;;;;;;5079443;28;20953;-75
2024/04/03 10:45:53;;;;;;;2.83;0.50;;;21.20;87.60;;;;;;5079575;28;20436;-75
2024/04/03 10:48:23;;;;;;;0.30;0.20;;;21.10;87.10;;;;;;5074728;28;20281;-78
2024/04/03 10:50:48;;;;;;;0.30;0.20;;;21.10;87.30;;;;;;5078108;28;20553;-75
2024/04/03 10:53:15;;;;;;;0.30;0.30;;;20.90;87.80;;;;;;5072692;28;20466;-75
2024/04/03 10:55:41;;;;;;;0.30;0.30;;;20.70;88.60;;;;;;5077117;28;20952;-78
2024/04/03 10:58:09;;;;;;;0.30;0.20;;;20.70;89.40;;;;;;5067051;28;20461;-76
2024/04/03 11:00:36;;;;;;;1.27;1.17;;;20.80;88.80;;;;;;5080431;28;20491;-77
2024/04/03 11:03:03;;;;;;;0.30;0.20;;;20.90;89.70;;;;;;5079770;28;20521;-78
2024/04/03 11:05:29;;;;;;;0.30;0.20;;;20.90;88.00;;;;;;5076928;28;20444;-76
2024/04/03 11:07:56;;;;;;;0.70;0.43;;;20.90;88.30;;;;;;5075815;28;20753;-78
2024/04/03 11:10:22;;;;;;;0.60;0.60;;;20.90;89.10;;;;;;5077861;28;20806;-77
2024/04/03 11:12:48;;;;;;;0.30;0.20;;;20.90;87.70;;;;;;5074313;28;20541;-76
2024/04/03 11:15:22;;;;;;;0.33;0.30;;;20.90;88.10;;;;;;5077298;28;20795;-77
2024/04/03 11:17:48;;;;;;;0.30;0.20;;;20.90;87.40;;;;;;5076225;28;20440;-79
2024/04/03 11:20:14;;;;;;;0.37;0.33;;;20.90;88.40;;;;;;5078686;28;20460;-78
2024/04/03 11:22:39;;;;;;;0.40;0.30;;;20.90;88.60;;;;;;5074547;28;20912;-77
2024/04/03 11:25:12;;;;;;;0.30;0.20;;;20.80;89.40;;;;;;5080226;28;20695;-79
2024/04/03 11:27:38;;;;;;;0.30;0.20;;;20.80;88.20;;;;;;5083215;28;20278;-77
2024/04/03 11:30:05;;;;;;;1.13;1.03;;;20.70;87.80;;;;;;5085409;28;20531;-79
2024/04/03 11:32:31;;;;;;;0.67;0.40;;;20.80;88.70;;;;;;5082114;28;20519;-77
2024/04/03 11:34:56;;;;;;;0.30;0.20;;;20.80;89.70;;;;;;5078398;28;20434;-77
2024/04/03 11:37:22;;;;;;;0.40;0.40;;;20.90;90.10;;;;;;5080646;28;20669;-78
2024/04/03 11:39:48;;;;;;;0.30;0.20;;;21.10;90.10;;;;;;5081126;28;20224;-78
2024/04/03 11:42:14;;;;;;;0.40;0.37;;;21.40;88.90;;;;;;5081397;28;20418;-78
2024/04/03 11:44:39;;;;;;;0.30;0.30;;;21.50;89.40;;;;;;5079010;28;20680;-78
2024/04/03 11:47:05;;;;;;;0.70;0.60;;;21.50;88.90;;;;;;5077805;28;20413;-76
2024/04/03 11:49:31;;;;;;;0.30;0.20;;;21.60;89.70;;;;;;5075589;28;20275;-76
2024/04/03 11:51:57;;;;;;;0.67;0.67;;;21.50;89.10;;;;;;5080065;28;20933;-79
2024/04/03 11:54:23;;;;;;;0.50;0.50;;;21.20;89.10;;;;;;5077554;28;20211;-77
2024/04/03 11:56:50;;;;;;;0.30;0.20;;;21.00;90.00;;;;;;5083591;28;20180;-78
2024/04/03 11:59:16;;;;;;;0.30;0.20;;;21.10;90.00;;;;;;5081406;28;20260;-77
2024/04/03 12:01:42;;;;;;;0.30;0.20;;;21.30;89.50;;;;;;5080049;28;20521;-77
2024/04/03 12:04:07;;;;;;;0.30;0.20;;;21.30;87.90;;;;;;5081001;28;20208;-76
2024/04/03 12:06:33;;;;;;;0.30;0.20;;;21.40;88.50;;;;;;5085875;28;20191;-75
2024/04/03 12:08:59;;;;;;;0.30;0.20;;;21.30;89.40;;;;;;5085536;28;20192;-77
2024/04/03 12:11:24;;;;;;;0.30;0.30;;;21.20;89.10;;;;;;5085145;28;20425;-76
2024/04/03 12:13:50;;;;;;;0.40;0.40;;;21.20;87.80;;;;;;5086182;28;20441;-77
2024/04/03 12:16:20;;;;;;;0.30;0.30;;;21.20;86.50;;;;;;5087632;28;20188;-78
2024/04/03 12:18:50;;;;;;;0.30;0.20;;;21.20;87.50;;;;;;5085617;28;20460;-76
2024/04/03 12:21:17;;;;;;;0.30;0.20;;;21.20;87.70;;;;;;5083769;28;20554;-76
2024/04/03 12:23:44;;;;;;;0.40;0.30;;;21.20;87.80;;;;;;5078147;28;20440;-75
2024/04/03 12:26:11;;;;;;;0.30;0.30;;;21.20;88.30;;;;;;5084268;28;20902;-77
2024/04/03 12:28:36;;;;;;;0.30;0.20;;;21.00;89.10;;;;;;5079739;28;20445;-76
2024/04/03 12:31:02;;;;;;;1.10;0.87;;;21.00;88.60;;;;;;5079826;28;21213;-76
2024/04/03 12:33:28;;;;;;;1.70;1.23;;;20.90;88.30;;;;;;5076709;28;20208;-77
2024/04/03 12:35:54;;;;;;;1.27;1.17;;;20.90;89.20;;;;;;5077370;28;20421;-78
2024/04/03 12:38:20;;;;;;;0.30;0.20;;;21.00;89.40;;;;;;5077676;28;20443;-75
2024/04/03 12:40:45;;;;;;;0.30;0.30;;;20.90;89.20;;;;;;5080286;28;20295;-75
2024/04/03 12:43:11;;;;;;;0.30;0.20;;;20.90;89.30;;;;;;5079501;28;20565;-76
2024/04/03 12:45:37;;;;;;;0.30;0.20;;;20.80;88.10;;;;;;5084850;28;20180;-76
2024/04/03 12:48:03;;;;;;;0.30;0.30;;;20.70;88.60;;;;;;5085954;28;20701;-77